Language selection

Features

My Weather Profile Weather Topics  | 

Central Brevoort - southern half: Past 24 Hour Conditions

 

Hopedale

06:00 PM ADT 16 April 2021
Disclaimer

This table is a summary of hourly weather conditions for the past 24 hours.
Please note that these observations might not always be representative of weather conditions over their associated marine area.

Date / Time
(ADT)
Wind(knots) Conditions Visibility(km) Pressure(kPa) Air tempC) Relative humidity(%) Dew pointC) Wind Chill
16 April 2021
18:00 9 gust 22 N/A N/A 102.3 -3 84 -5 -8
17:00 3 N/A N/A 102.3 -2 61 -8 -4
16:00 3 N/A N/A 102.3 -1 61 -8 -3
15:00 7 N/A N/A 102.3 -2 65 -7 -6
14:00 4 N/A N/A 102.3 -2 67 -7 -5
13:00 8 N/A N/A 102.3 -2 60 -8 -6
12:00 7 gust 17 N/A N/A 102.3 -2 63 -8 -6
11:00 6 N/A N/A 102.4 -3 71 -8 -8
10:00 5 N/A N/A 102.4 -6 80 -9 -10
9:00 7 N/A N/A 102.5 -7 83 -10 -13
8:00 8 N/A N/A 102.5 -8 86 -10 -14
7:00 4 N/A N/A 102.5 -9 89 -10 -13
6:00 4 N/A N/A 102.5 -9 93 -10 -14
5:00 2 N/A N/A 102.5 -9 90 -11 -12
4:00 5 N/A N/A 102.6 -9 89 -11 -14
3:00 3 N/A N/A 102.6 -10 90 -11 -12
2:00 3 N/A N/A 102.6 -9 89 -11 -12
1:00 2 N/A N/A 102.7 -9 87 -10 -11
0:00 2 N/A N/A 102.7 -9 87 -10 -11
15 April 2021
23:00 1 N/A N/A 102.8 -8 87 -10 -9
22:00 calm N/A N/A 102.8 -8 89 -9 *
21:00 3 N/A N/A 102.9 -8 84 -10 -10
20:00 6 N/A N/A 102.9 -7 83 -9 -12
19:00 8 N/A N/A 102.9 -5 78 -9 -11
18:00 7 gust 20 N/A N/A 102.9 -4 78 -8 -9

Zoom-in to make a selection

Map of Atlantic - Labrador marine weather areas Kangiqsualujjuaq Airport Cape Kakkiviak Cape Kiglapait Cartwright Airport CFB Goose Bay Hopedale Mary's Harbour Nain Airport Makkovik Airport Saglek Tukialik Bay
Legend:
buoy Buoy
land station Land Station

Atlantic - Labrador Area

Another Region

What we are doing

Date modified: